createdAt,value
2022-09-01T00:00:01.863Z,18.70
2022-09-01T00:02:31.498Z,15.87
2022-09-01T00:05:01.950Z,20.20
2022-09-01T00:07:32.200Z,16.03
2022-09-01T00:10:01.086Z,23.83
2022-09-01T00:12:30.897Z,15.33
2022-09-01T00:14:59.971Z,16.23
2022-09-01T00:17:29.982Z,17.40
2022-09-01T00:19:58.825Z,17.37
2022-09-01T00:22:27.867Z,16.97
2022-09-01T00:24:58.007Z,16.77
2022-09-01T00:27:27.987Z,18.90
2022-09-01T00:30:00.069Z,24.37
2022-09-01T00:32:29.048Z,19.90
2022-09-01T00:34:58.080Z,19.70
2022-09-01T00:37:26.842Z,18.77
2022-09-01T00:39:57.105Z,16.13
2022-09-01T00:42:25.995Z,20.07
2022-09-01T00:44:54.840Z,15.90
2022-09-01T00:47:23.594Z,20.73
2022-09-01T00:49:53.034Z,16.20
2022-09-01T00:52:24.313Z,20.10
2022-09-01T00:54:58.196Z,20.20
2022-09-01T00:57:27.493Z,17.80
2022-09-01T00:59:58.711Z,18.20
2022-09-01T01:02:28.071Z,19.73
2022-09-01T01:05:00.634Z,22.53
2022-09-01T01:07:29.747Z,16.67
2022-09-01T01:09:59.985Z,19.40
2022-09-01T01:12:30.826Z,20.67
2022-09-01T01:14:59.939Z,22.67
2022-09-01T01:17:28.703Z,19.63
2022-09-01T01:20:16.054Z,19.40
2022-09-01T01:23:03.715Z,17.00
2022-09-01T01:25:37.347Z,24.83
2022-09-01T01:28:13.064Z,18.90
2022-09-01T01:30:44.451Z,19.87
2022-09-01T01:33:13.238Z,18.17
2022-09-01T01:35:42.390Z,26.53
2022-09-01T01:38:11.219Z,17.70
2022-09-01T01:40:41.818Z,21.83
2022-09-01T01:43:11.530Z,16.67
2022-09-01T01:45:40.375Z,23.53
2022-09-01T01:48:10.709Z,21.17
2022-09-01T01:50:41.040Z,23.50
2022-09-01T01:53:12.082Z,22.60
2022-09-01T01:55:43.703Z,17.30
2022-09-01T01:58:15.004Z,17.70
2022-09-01T02:00:47.494Z,18.43
2022-09-01T02:03:19.116Z,14.23
2022-09-01T02:05:49.025Z,15.23
2022-09-01T02:08:22.863Z,18.30
2022-09-01T02:10:54.960Z,17.67
2022-09-01T02:13:26.667Z,21.10
2022-09-01T02:15:57.178Z,19.73
2022-09-01T02:18:27.935Z,17.93
2022-09-01T02:20:58.814Z,17.90
2022-09-01T02:23:28.108Z,19.57
2022-09-01T02:26:17.534Z,20.43
2022-09-01T02:28:55.737Z,20.50
2022-09-01T02:31:25.133Z,19.30
2022-09-01T02:33:54.700Z,19.80
2022-09-01T02:36:25.179Z,17.40
2022-09-01T02:38:56.534Z,16.33
2022-09-01T02:41:34.714Z,24.23
2022-09-01T02:44:05.749Z,18.80
2022-09-01T02:46:34.567Z,18.63
2022-09-01T02:49:04.505Z,17.30
2022-09-01T02:51:33.354Z,16.07
2022-09-01T02:54:02.115Z,14.20
2022-09-01T02:56:32.538Z,15.87
2022-09-01T02:59:03.137Z,17.33
2022-09-01T03:01:33.854Z,17.50
2022-09-01T03:04:09.746Z,19.03
2022-09-01T03:06:39.242Z,17.97
2022-09-01T03:09:11.777Z,15.60
2022-09-01T03:11:43.840Z,15.80
2022-09-01T03:14:13.537Z,15.80
2022-09-01T03:16:42.497Z,17.90
2022-09-01T03:19:12.122Z,19.30
2022-09-01T03:21:44.749Z,20.27
2022-09-01T03:24:16.833Z,19.97
2022-09-01T03:26:50.226Z,16.57
2022-09-01T03:29:19.374Z,15.53
2022-09-01T03:31:48.558Z,19.67
2022-09-01T03:34:20.700Z,25.00
2022-09-01T03:36:51.176Z,20.70
2022-09-01T03:39:20.465Z,16.03
2022-09-01T03:41:50.575Z,24.20
2022-09-01T03:44:19.287Z,19.87
2022-09-01T03:46:48.037Z,17.07
2022-09-01T03:49:24.898Z,17.23
2022-09-01T03:51:54.084Z,19.43
2022-09-01T03:54:30.403Z,17.67
2022-09-01T03:57:00.713Z,18.00
2022-09-01T03:59:30.327Z,21.67
2022-09-01T04:02:00.202Z,19.40
2022-09-01T04:04:31.482Z,17.83
2022-09-01T04:07:01.196Z,16.67
2022-09-01T04:09:29.900Z,16.07
2022-09-01T04:12:00.022Z,17.97
2022-09-01T04:14:29.281Z,15.43
2022-09-01T04:17:17.059Z,15.30
2022-09-01T04:19:46.075Z,19.90
2022-09-01T04:22:15.594Z,20.73
2022-09-01T04:24:45.999Z,16.90
2022-09-01T04:27:18.513Z,17.10
2022-09-01T04:29:48.491Z,17.13
2022-09-01T04:32:17.329Z,15.57
2022-09-01T04:34:46.077Z,15.50
2022-09-01T04:37:18.177Z,17.03
2022-09-01T04:39:55.656Z,21.07
2022-09-01T04:42:29.240Z,18.20
2022-09-01T04:44:59.918Z,20.70
2022-09-01T04:47:36.253Z,22.37
2022-09-01T04:50:13.878Z,19.87
2022-09-01T04:52:43.420Z,24.30
2022-09-01T04:55:17.532Z,20.23
2022-09-01T04:57:49.469Z,17.57
2022-09-01T05:00:23.402Z,21.97
2022-09-01T05:02:53.445Z,22.87
2022-09-01T05:05:23.025Z,21.20
2022-09-01T05:07:55.460Z,24.50
2022-09-01T05:10:29.832Z,26.83
2022-09-01T05:13:00.201Z,20.67
2022-09-01T05:15:30.945Z,21.53
2022-09-01T05:18:02.700Z,24.53
2022-09-01T05:20:32.100Z,23.77
2022-09-01T05:23:01.818Z,23.77
2022-09-01T05:25:30.838Z,23.50
2022-09-01T05:28:02.790Z,22.20
2022-09-01T05:30:31.717Z,24.60
2022-09-01T05:33:00.419Z,20.90
2022-09-01T05:35:32.587Z,22.47
2022-09-01T05:38:02.725Z,20.00
2022-09-01T05:40:34.019Z,25.60
2022-09-01T05:43:04.444Z,24.10
2022-09-01T05:45:56.328Z,23.57
2022-09-01T05:48:26.678Z,27.13
2022-09-01T05:50:59.795Z,23.43
2022-09-01T05:53:31.059Z,26.83
2022-09-01T05:56:00.005Z,22.13
2022-09-01T05:59:22.333Z,27.30
2022-09-01T06:01:22.320Z,34.47
2022-09-01T06:03:53.149Z,27.77
2022-09-01T06:06:22.966Z,31.80
2022-09-01T06:08:51.976Z,33.63
2022-09-01T06:11:21.791Z,36.87
2022-09-01T06:13:55.262Z,36.73
2022-09-01T06:16:25.473Z,30.83
2022-09-01T06:18:57.461Z,28.57
2022-09-01T06:21:28.967Z,36.10
2022-09-01T06:23:59.255Z,33.93
2022-09-01T06:26:30.050Z,33.43
2022-09-01T06:29:03.487Z,28.93
2022-09-01T06:31:35.129Z,35.03
2022-09-01T06:34:05.378Z,31.00
2022-09-01T06:36:36.660Z,28.23
2022-09-01T06:39:05.679Z,30.20
2022-09-01T06:41:36.256Z,32.70
2022-09-01T06:44:09.900Z,30.73
2022-09-01T06:46:41.255Z,36.93
2022-09-01T06:49:11.622Z,37.10
2022-09-01T06:51:40.929Z,32.97
2022-09-01T06:54:14.856Z,31.37
2022-09-01T06:56:44.922Z,32.93
2022-09-01T06:59:22.337Z,30.47
2022-09-01T07:02:01.466Z,27.97
2022-09-01T07:04:32.226Z,29.30
2022-09-01T07:07:54.070Z,29.30
2022-09-01T07:10:06.084Z,30.37
2022-09-01T07:13:04.800Z,29.90
2022-09-01T07:16:31.860Z,26.20
2022-09-01T07:18:25.188Z,24.23
2022-09-01T07:21:05.487Z,23.60
2022-09-01T07:23:47.376Z,25.80
2022-09-01T07:26:29.054Z,26.50
2022-09-01T07:29:01.821Z,21.77
2022-09-01T07:34:41.930Z,22.87
2022-09-01T07:42:31.641Z,23.90
2022-09-01T07:43:12.853Z,26.77
2022-09-01T07:45:47.685Z,22.70
2022-09-01T07:53:58.828Z,26.93
2022-09-01T07:56:27.614Z,21.20
2022-09-01T07:58:57.241Z,24.90
2022-09-01T08:01:27.530Z,19.57
2022-09-01T08:04:02.046Z,19.10
2022-09-01T08:06:39.320Z,21.07
2022-09-01T08:09:11.594Z,16.17
2022-09-01T08:12:01.137Z,13.50
2022-09-01T08:14:33.716Z,12.10
2022-09-01T08:17:34.355Z,11.67
2022-09-01T08:19:54.415Z,14.73
2022-09-01T08:22:25.199Z,11.50
2022-09-01T08:24:54.930Z,13.93
2022-09-01T08:27:23.926Z,10.23
2022-09-01T08:29:52.733Z,9.20
2022-09-01T08:32:22.018Z,11.83
2022-09-01T08:34:50.957Z,16.40
2022-09-01T08:37:22.215Z,8.67
2022-09-01T08:39:52.869Z,10.90
2022-09-01T08:42:32.956Z,9.23
2022-09-01T08:45:05.661Z,10.07
2022-09-01T08:47:50.453Z,9.50
2022-09-01T08:50:23.908Z,6.90
2022-09-01T08:53:09.046Z,7.60
2022-09-01T08:55:42.164Z,7.30
2022-09-01T08:58:12.111Z,6.97
2022-09-01T09:00:46.670Z,8.10
2022-09-01T09:03:22.113Z,6.67
2022-09-01T09:06:04.062Z,6.93
2022-09-01T09:08:56.921Z,10.37
2022-09-01T09:11:38.801Z,8.13
2022-09-01T09:14:12.517Z,6.47
2022-09-01T09:16:43.090Z,5.87
2022-09-01T09:19:17.175Z,5.97
2022-09-01T09:21:48.217Z,5.33
2022-09-01T09:24:22.861Z,5.90
2022-09-01T09:26:52.193Z,6.60
2022-09-01T09:29:22.021Z,5.67
2022-09-01T09:32:03.983Z,5.27
2022-09-01T09:34:35.782Z,5.47
2022-09-01T09:37:28.219Z,4.77
2022-09-01T09:40:15.118Z,3.90
2022-09-01T09:43:02.089Z,3.50
2022-09-01T09:45:34.634Z,4.10
2022-09-01T09:48:10.793Z,5.07
2022-09-01T09:50:41.910Z,3.80
2022-09-01T09:53:17.481Z,5.00
2022-09-01T09:56:00.240Z,4.00
2022-09-01T09:58:36.045Z,4.90
2022-09-01T10:01:09.338Z,4.03
2022-09-01T10:03:44.347Z,3.90
2022-09-01T10:06:15.373Z,4.23
2022-09-01T10:08:48.541Z,4.40
2022-09-01T10:11:35.430Z,3.77
2022-09-01T10:14:07.769Z,3.93
2022-09-01T10:16:39.096Z,3.90
2022-09-01T10:19:13.045Z,5.63
2022-09-01T10:21:46.348Z,3.37
2022-09-01T10:24:21.389Z,4.13
2022-09-01T10:26:54.968Z,3.47
2022-09-01T10:29:26.979Z,4.57
2022-09-01T10:32:28.078Z,4.23
2022-09-01T10:34:46.675Z,3.63
2022-09-01T10:37:15.978Z,5.13
2022-09-01T10:40:20.556Z,4.70
2022-09-01T10:42:55.124Z,9.10
2022-09-01T10:45:35.257Z,4.43
2022-09-01T10:48:32.138Z,3.80
2022-09-01T10:51:38.458Z,3.10
2022-09-01T10:54:09.362Z,4.67
2022-09-01T10:56:44.409Z,4.80
2022-09-01T10:59:40.260Z,3.80
2022-09-01T11:02:25.816Z,3.47
2022-09-01T11:05:13.816Z,3.13
2022-09-01T11:08:01.522Z,3.60
2022-09-01T11:10:47.601Z,3.87
2022-09-01T11:13:37.518Z,3.40
2022-09-01T11:16:50.119Z,3.40
2022-09-01T11:19:31.694Z,3.67
2022-09-01T11:22:09.450Z,3.30
2022-09-01T11:24:58.002Z,3.30
2022-09-01T11:28:01.670Z,9.83
2022-09-01T11:30:52.889Z,3.30
2022-09-01T11:33:44.197Z,4.73
2022-09-01T11:36:23.526Z,3.70
2022-09-01T11:38:57.733Z,4.80
2022-09-01T11:41:31.225Z,3.27
2022-09-01T11:44:01.301Z,3.70
2022-09-01T11:46:34.297Z,4.73
2022-09-01T11:49:08.755Z,3.30
2022-09-01T11:51:43.882Z,3.50
2022-09-01T11:54:12.932Z,5.20
2022-09-01T11:56:41.815Z,3.07
2022-09-01T11:59:10.837Z,7.20
2022-09-01T12:01:41.068Z,3.30
2022-09-01T12:04:23.349Z,3.23
2022-09-01T12:06:54.468Z,2.97
2022-09-01T12:09:23.733Z,3.20
2022-09-01T12:11:52.804Z,3.20
2022-09-01T12:14:23.419Z,2.63
2022-09-01T12:17:00.255Z,3.20
2022-09-01T12:19:33.016Z,4.37
2022-09-01T12:22:05.339Z,6.33
2022-09-01T12:24:37.025Z,8.30
2022-09-01T12:27:05.926Z,7.50
2022-09-01T12:29:34.826Z,6.07
2022-09-01T12:32:04.228Z,5.33
2022-09-01T12:34:43.178Z,3.37
2022-09-01T12:37:21.995Z,3.30
2022-09-01T12:39:52.341Z,3.10
2022-09-01T12:42:28.392Z,3.10
2022-09-01T12:44:59.372Z,4.87
2022-09-01T12:47:50.361Z,3.07
2022-09-01T12:50:43.653Z,2.73
2022-09-01T12:53:30.552Z,3.13
2022-09-01T12:56:16.965Z,3.87
2022-09-01T12:58:49.449Z,3.23
2022-09-01T13:01:33.576Z,4.53
2022-09-01T13:04:13.504Z,3.50
2022-09-01T13:06:44.547Z,2.70
2022-09-01T13:09:13.427Z,3.00
2022-09-01T13:14:31.765Z,2.83
2022-09-01T13:17:01.676Z,2.83
2022-09-01T13:19:30.776Z,3.13
2022-09-01T13:22:02.027Z,4.60
2022-09-01T13:24:31.911Z,3.83
2022-09-01T13:29:50.285Z,5.07
2022-09-01T13:32:21.395Z,3.40
2022-09-01T13:34:52.248Z,4.87
2022-09-01T13:37:23.315Z,3.30
2022-09-01T13:39:52.491Z,2.87
2022-09-01T13:42:21.941Z,4.27
2022-09-01T13:44:54.083Z,2.90
2022-09-01T13:47:29.170Z,5.63
2022-09-01T13:50:08.287Z,2.80
2022-09-01T13:52:41.847Z,4.37
2022-09-01T13:55:12.821Z,7.60
2022-09-01T13:57:41.753Z,4.37
2022-09-01T14:00:12.881Z,3.27
2022-09-01T14:02:42.954Z,3.63
2022-09-01T14:05:12.253Z,5.23
2022-09-01T14:07:42.582Z,3.90
2022-09-01T14:10:11.869Z,2.73
2022-09-01T14:12:41.602Z,4.50
2022-09-01T14:15:15.577Z,3.03
2022-09-01T14:17:47.242Z,4.60
2022-09-01T14:20:18.445Z,4.00
2022-09-01T14:22:49.219Z,4.00
2022-09-01T14:25:20.284Z,4.37
2022-09-01T14:27:49.668Z,2.80
2022-09-01T14:30:20.406Z,3.67
2022-09-01T14:32:50.422Z,3.90
2022-09-01T14:35:20.324Z,2.53
2022-09-01T14:37:50.437Z,3.13
2022-09-01T14:40:22.565Z,3.10
2022-09-01T14:42:53.187Z,2.43
2022-09-01T14:45:23.786Z,2.40
2022-09-01T14:47:55.886Z,3.00
2022-09-01T14:50:25.261Z,5.23
2022-09-01T14:52:57.424Z,2.23
2022-09-01T14:55:29.259Z,2.90
2022-09-01T14:57:58.480Z,3.60
2022-09-01T15:00:28.136Z,2.57
2022-09-01T15:02:57.310Z,2.27
2022-09-01T15:05:26.475Z,2.80
2022-09-01T15:07:56.683Z,6.10
2022-09-01T15:10:27.728Z,3.93
2022-09-01T15:12:59.335Z,4.77
2022-09-01T15:15:29.096Z,2.70
2022-09-01T15:17:58.439Z,2.40
2022-09-01T15:20:44.902Z,2.60
2022-09-01T15:23:16.566Z,3.73
2022-09-01T15:25:45.784Z,2.53
2022-09-01T15:28:15.512Z,4.60
2022-09-01T15:30:45.547Z,2.53
2022-09-01T15:33:16.403Z,5.20
2022-09-01T15:35:46.128Z,2.77
2022-09-01T15:38:17.730Z,2.93
2022-09-01T15:40:55.448Z,4.40
2022-09-01T15:43:28.571Z,2.50
2022-09-01T15:45:59.141Z,2.50
2022-09-01T15:48:29.109Z,2.73
2022-09-01T15:51:09.906Z,7.27
2022-09-01T15:53:40.105Z,4.73
2022-09-01T15:56:08.790Z,3.17
2022-09-01T15:58:57.543Z,6.43
2022-09-01T16:01:26.749Z,2.67
2022-09-01T16:03:56.121Z,4.20
2022-09-01T16:06:28.916Z,2.20
2022-09-01T16:08:59.208Z,2.30
2022-09-01T16:11:28.473Z,2.53
2022-09-01T16:13:58.246Z,3.73
2022-09-01T16:16:40.081Z,2.73
2022-09-01T16:19:19.143Z,2.90
2022-09-01T16:21:52.948Z,3.20
2022-09-01T16:24:23.392Z,3.13
2022-09-01T16:26:52.967Z,3.03
2022-09-01T16:29:28.300Z,3.17
2022-09-01T16:31:57.433Z,4.10
2022-09-01T16:34:28.473Z,3.30
2022-09-01T16:37:03.270Z,3.67
2022-09-01T16:39:36.504Z,4.10
2022-09-01T16:42:16.806Z,3.63
2022-09-01T16:44:53.549Z,6.27
2022-09-01T16:47:34.425Z,6.23
2022-09-01T16:50:10.874Z,2.70
2022-09-01T16:52:53.660Z,4.10
2022-09-01T16:55:28.893Z,3.20
2022-09-01T16:58:01.914Z,2.93
2022-09-01T17:00:37.085Z,2.93
2022-09-01T17:03:09.396Z,3.20
2022-09-01T17:05:51.391Z,2.57
2022-09-01T17:08:22.736Z,2.33
2022-09-01T17:10:56.267Z,5.13
2022-09-01T17:13:30.126Z,3.40
2022-09-01T17:16:04.005Z,3.60
2022-09-01T17:18:35.817Z,2.30
2022-09-01T17:21:11.154Z,3.20
2022-09-01T17:23:43.111Z,3.60
2022-09-01T17:26:18.387Z,3.00
2022-09-01T17:28:55.186Z,2.87
2022-09-01T17:31:42.774Z,2.50
2022-09-01T17:34:22.163Z,2.50
2022-09-01T17:36:56.866Z,2.90
2022-09-01T17:39:36.947Z,3.43
2022-09-01T17:42:11.433Z,2.60
2022-09-01T17:44:45.422Z,3.87
2022-09-01T17:47:21.581Z,6.17
2022-09-01T17:49:55.295Z,2.93
2022-09-01T17:52:34.265Z,3.67
2022-09-01T17:55:10.057Z,3.63
2022-09-01T17:57:44.205Z,4.67
2022-09-01T18:00:23.661Z,2.53
2022-09-01T18:03:09.322Z,3.30
2022-09-01T18:05:41.596Z,4.77
2022-09-01T18:08:20.708Z,2.47
2022-09-01T18:10:53.916Z,5.53
2022-09-01T18:13:51.412Z,4.00
2022-09-01T18:16:18.424Z,6.20
2022-09-01T18:18:49.141Z,4.77
2022-09-01T18:21:20.328Z,3.57
2022-09-01T18:23:51.526Z,4.10
2022-09-01T18:26:27.312Z,3.23
2022-09-01T18:28:58.258Z,4.03
2022-09-01T18:32:10.536Z,4.23
2022-09-01T18:34:48.462Z,3.40
2022-09-01T18:37:20.905Z,5.18
2022-09-01T18:39:54.877Z,4.17
2022-09-01T18:42:27.453Z,3.70
2022-09-01T18:45:06.049Z,4.00
2022-09-01T18:47:36.920Z,5.57
2022-09-01T18:50:11.803Z,9.43
2022-09-01T18:53:05.343Z,3.50
2022-09-01T18:55:40.413Z,4.63
2022-09-01T18:58:12.464Z,5.20
2022-09-01T19:00:47.794Z,3.63
2022-09-01T19:03:27.188Z,5.05
2022-09-01T19:06:23.469Z,9.00
2022-09-01T19:09:01.643Z,5.13
2022-09-01T19:11:39.876Z,3.93
2022-09-01T19:14:15.853Z,8.40
2022-09-01T19:16:58.871Z,4.57
2022-09-01T19:19:37.584Z,6.53
2022-09-01T19:22:06.886Z,3.60
2022-09-01T19:24:39.757Z,3.57
2022-09-01T19:27:11.797Z,4.90
2022-09-01T19:29:47.038Z,7.67
2022-09-01T19:32:19.922Z,7.23
2022-09-01T19:34:52.317Z,3.97
2022-09-01T19:37:21.813Z,4.00
2022-09-01T19:39:54.198Z,5.10
2022-09-01T19:42:28.331Z,7.27
2022-09-01T19:45:05.174Z,7.73
2022-09-01T19:47:43.272Z,5.03
2022-09-01T19:50:17.850Z,4.70
2022-09-01T19:52:52.719Z,4.03
2022-09-01T19:55:30.975Z,8.03
2022-09-01T19:58:03.419Z,6.10
2022-09-01T20:00:50.743Z,5.67
2022-09-01T20:03:23.776Z,5.90
2022-09-01T20:05:56.120Z,5.20
2022-09-01T20:08:29.121Z,4.90
2022-09-01T20:11:02.193Z,5.83
2022-09-01T20:13:57.468Z,4.70
2022-09-01T20:16:30.921Z,6.80
2022-09-01T20:19:05.230Z,6.73
2022-09-01T20:21:39.969Z,8.70
2022-09-01T20:24:13.058Z,5.60
2022-09-01T20:26:46.130Z,8.23
2022-09-01T20:29:20.274Z,7.80
2022-09-01T20:31:55.406Z,8.13
2022-09-01T20:34:30.142Z,7.93
2022-09-01T20:37:03.443Z,6.20
2022-09-01T20:39:57.416Z,8.57
2022-09-01T20:42:35.307Z,9.10
2022-09-01T20:45:09.147Z,7.97
2022-09-01T20:47:37.959Z,9.10
2022-09-01T20:50:11.950Z,7.80
2022-09-01T20:52:49.424Z,7.63
2022-09-01T20:55:22.175Z,5.77
2022-09-01T20:57:55.848Z,5.93
2022-09-01T21:00:26.837Z,7.50
2022-09-01T21:03:02.154Z,7.13
2022-09-01T21:05:41.689Z,13.83
2022-09-01T21:08:20.178Z,7.33
2022-09-01T21:10:53.326Z,7.27
2022-09-01T21:13:35.528Z,6.60
2022-09-01T21:16:08.660Z,5.60
2022-09-01T21:18:46.687Z,8.00
2022-09-01T21:21:26.879Z,12.30
2022-09-01T21:23:55.604Z,6.00
2022-09-01T21:26:24.582Z,5.93
2022-09-01T21:28:56.304Z,8.10
2022-09-01T21:31:25.410Z,6.30
2022-09-01T21:33:54.153Z,6.27
2022-09-01T21:36:24.274Z,14.20
2022-09-01T21:38:53.068Z,5.37
2022-09-01T21:41:21.837Z,10.80
2022-09-01T21:43:50.859Z,7.70
2022-09-01T21:46:20.628Z,7.40
2022-09-01T21:48:49.423Z,8.10
2022-09-01T21:51:20.301Z,6.93
2022-09-01T21:53:50.816Z,16.83
2022-09-01T21:56:19.916Z,8.80
2022-09-01T21:58:55.688Z,5.80
2022-09-01T22:01:26.860Z,6.70
2022-09-01T22:03:55.607Z,5.80
2022-09-01T22:06:24.491Z,4.20
2022-09-01T22:08:55.232Z,4.73
2022-09-01T22:11:24.185Z,4.97
2022-09-01T22:13:53.460Z,6.93
2022-09-01T22:16:23.670Z,5.07
2022-09-01T22:18:52.591Z,5.37
2022-09-01T22:21:24.573Z,9.97
2022-09-01T22:23:55.258Z,7.07
2022-09-01T22:26:28.909Z,5.63
2022-09-01T22:28:59.658Z,6.10
2022-09-01T22:31:32.768Z,8.33
2022-09-01T22:34:02.608Z,6.37
2022-09-01T22:36:33.485Z,5.63
2022-09-01T22:39:04.091Z,9.20
2022-09-01T22:41:33.801Z,7.43
2022-09-01T22:44:03.745Z,7.90
2022-09-01T22:46:33.729Z,8.97
2022-09-01T22:49:04.047Z,8.23
2022-09-01T22:51:33.834Z,7.10
2022-09-01T22:54:04.528Z,5.17
2022-09-01T22:56:36.135Z,5.20
2022-09-01T22:59:09.603Z,5.87
2022-09-01T23:01:42.074Z,6.20
2022-09-01T23:04:13.147Z,6.80
2022-09-01T23:06:44.900Z,8.80
2022-09-01T23:09:17.894Z,9.60
2022-09-01T23:11:47.160Z,5.30
2022-09-01T23:14:18.655Z,5.93
2022-09-01T23:16:51.517Z,6.30
2022-09-01T23:19:22.860Z,9.23
2022-09-01T23:21:52.594Z,6.13
2022-09-01T23:24:23.200Z,5.23
2022-09-01T23:26:52.302Z,11.33
2022-09-01T23:29:21.362Z,8.17
2022-09-01T23:31:50.255Z,6.40
2022-09-01T23:34:19.174Z,5.30
2022-09-01T23:36:48.319Z,7.27
2022-09-01T23:39:19.205Z,6.67
2022-09-01T23:41:49.448Z,5.60
2022-09-01T23:44:18.258Z,4.10
2022-09-01T23:46:47.755Z,4.13
2022-09-01T23:49:18.356Z,4.53
2022-09-01T23:51:48.242Z,4.43
2022-09-01T23:54:17.267Z,3.70
2022-09-01T23:56:47.048Z,3.67
2022-09-01T23:59:17.271Z,8.10
